sensor_id;sensor_type;location;lat;lon;timestamp;P1;durP1;ratioP1;P2;durP2;ratioP2
37239;SDS011;23130;48.760;9.178;2023-04-15T00:01:08;4.18;;;1.10;;
37239;SDS011;23130;48.760;9.178;2023-04-15T00:03:34;4.85;;;1.40;;
37239;SDS011;23130;48.760;9.178;2023-04-15T00:06:00;4.97;;;1.42;;
37239;SDS011;23130;48.760;9.178;2023-04-15T00:08:26;3.25;;;1.25;;
37239;SDS011;23130;48.760;9.178;2023-04-15T00:10:52;5.05;;;1.80;;
37239;SDS011;23130;48.760;9.178;2023-04-15T00:13:17;5.70;;;2.08;;
37239;SDS011;23130;48.760;9.178;2023-04-15T00:15:43;4.60;;;1.95;;
37239;SDS011;23130;48.760;9.178;2023-04-15T00:18:08;4.90;;;2.08;;
37239;SDS011;23130;48.760;9.178;2023-04-15T00:20:34;3.65;;;1.75;;
37239;SDS011;23130;48.760;9.178;2023-04-15T00:23:01;4.00;;;1.73;;
37239;SDS011;23130;48.760;9.178;2023-04-15T00:25:27;7.53;;;2.08;;
37239;SDS011;23130;48.760;9.178;2023-04-15T00:27:53;2.50;;;1.60;;
37239;SDS011;23130;48.760;9.178;2023-04-15T00:30:19;4.28;;;1.60;;
37239;SDS011;23130;48.760;9.178;2023-04-15T00:32:44;7.57;;;1.83;;
37239;SDS011;23130;48.760;9.178;2023-04-15T00:35:10;6.75;;;1.85;;
37239;SDS011;23130;48.760;9.178;2023-04-15T00:37:36;4.45;;;1.63;;
37239;SDS011;23130;48.760;9.178;2023-04-15T00:40:02;4.55;;;1.58;;
37239;SDS011;23130;48.760;9.178;2023-04-15T00:42:30;6.60;;;1.77;;
37239;SDS011;23130;48.760;9.178;2023-04-15T00:44:55;3.40;;;2.03;;
37239;SDS011;23130;48.760;9.178;2023-04-15T00:47:21;2.60;;;1.60;;
37239;SDS011;23130;48.760;9.178;2023-04-15T00:49:47;4.95;;;1.70;;
37239;SDS011;23130;48.760;9.178;2023-04-15T00:52:13;5.43;;;2.20;;
37239;SDS011;23130;48.760;9.178;2023-04-15T00:54:38;7.40;;;2.28;;
37239;SDS011;23130;48.760;9.178;2023-04-15T00:57:07;4.28;;;1.88;;
37239;SDS011;23130;48.760;9.178;2023-04-15T00:59:34;5.15;;;2.05;;
37239;SDS011;23130;48.760;9.178;2023-04-15T01:02:00;6.72;;;2.58;;
37239;SDS011;23130;48.760;9.178;2023-04-15T01:04:26;5.57;;;2.67;;
37239;SDS011;23130;48.760;9.178;2023-04-15T01:06:52;6.35;;;2.45;;
37239;SDS011;23130;48.760;9.178;2023-04-15T01:09:17;8.32;;;2.00;;
37239;SDS011;23130;48.760;9.178;2023-04-15T01:11:43;3.75;;;1.55;;
37239;SDS011;23130;48.760;9.178;2023-04-15T01:14:08;6.10;;;2.92;;
37239;SDS011;23130;48.760;9.178;2023-04-15T01:16:35;6.75;;;2.35;;
37239;SDS011;23130;48.760;9.178;2023-04-15T01:19:04;4.32;;;2.00;;
37239;SDS011;23130;48.760;9.178;2023-04-15T01:21:33;4.88;;;1.75;;
37239;SDS011;23130;48.760;9.178;2023-04-15T01:24:01;6.45;;;2.28;;
37239;SDS011;23130;48.760;9.178;2023-04-15T01:26:32;5.03;;;2.40;;
37239;SDS011;23130;48.760;9.178;2023-04-15T01:28:58;4.95;;;2.65;;
37239;SDS011;23130;48.760;9.178;2023-04-15T01:31:24;6.68;;;2.50;;
37239;SDS011;23130;48.760;9.178;2023-04-15T01:33:50;3.65;;;1.92;;
37239;SDS011;23130;48.760;9.178;2023-04-15T01:36:15;8.85;;;2.55;;
37239;SDS011;23130;48.760;9.178;2023-04-15T01:38:41;4.45;;;1.83;;
37239;SDS011;23130;48.760;9.178;2023-04-15T01:41:06;3.85;;;1.65;;
37239;SDS011;23130;48.760;9.178;2023-04-15T01:43:33;7.30;;;2.00;;
37239;SDS011;23130;48.760;9.178;2023-04-15T01:46:00;4.45;;;1.95;;
37239;SDS011;23130;48.760;9.178;2023-04-15T01:48:25;3.80;;;1.83;;
37239;SDS011;23130;48.760;9.178;2023-04-15T01:50:51;4.20;;;2.00;;
37239;SDS011;23130;48.760;9.178;2023-04-15T01:53:18;3.28;;;2.00;;
37239;SDS011;23130;48.760;9.178;2023-04-15T01:55:43;9.52;;;2.95;;
37239;SDS011;23130;48.760;9.178;2023-04-15T01:58:09;9.95;;;2.45;;
37239;SDS011;23130;48.760;9.178;2023-04-15T02:03:14;4.85;;;2.17;;
37239;SDS011;23130;48.760;9.178;2023-04-15T02:05:40;6.05;;;2.78;;
37239;SDS011;23130;48.760;9.178;2023-04-15T02:08:06;8.90;;;3.67;;
37239;SDS011;23130;48.760;9.178;2023-04-15T02:10:33;6.65;;;2.75;;
37239;SDS011;23130;48.760;9.178;2023-04-15T02:12:59;3.13;;;1.90;;
37239;SDS011;23130;48.760;9.178;2023-04-15T02:15:25;4.40;;;2.28;;
37239;SDS011;23130;48.760;9.178;2023-04-15T02:17:50;3.95;;;2.60;;
37239;SDS011;23130;48.760;9.178;2023-04-15T02:20:17;8.13;;;2.80;;
37239;SDS011;23130;48.760;9.178;2023-04-15T02:22:43;9.95;;;3.00;;
37239;SDS011;23130;48.760;9.178;2023-04-15T02:25:09;8.00;;;2.50;;
37239;SDS011;23130;48.760;9.178;2023-04-15T02:27:35;4.70;;;2.38;;
37239;SDS011;23130;48.760;9.178;2023-04-15T02:30:01;11.23;;;3.33;;
37239;SDS011;23130;48.760;9.178;2023-04-15T02:32:27;6.63;;;3.25;;
37239;SDS011;23130;48.760;9.178;2023-04-15T02:34:53;7.70;;;3.03;;
37239;SDS011;23130;48.760;9.178;2023-04-15T02:37:18;4.82;;;2.60;;
37239;SDS011;23130;48.760;9.178;2023-04-15T02:39:45;5.50;;;2.75;;
37239;SDS011;23130;48.760;9.178;2023-04-15T02:42:10;5.03;;;2.72;;
37239;SDS011;23130;48.760;9.178;2023-04-15T02:44:37;4.18;;;2.33;;
37239;SDS011;23130;48.760;9.178;2023-04-15T02:47:02;8.02;;;3.13;;
37239;SDS011;23130;48.760;9.178;2023-04-15T02:49:30;8.35;;;2.83;;
37239;SDS011;23130;48.760;9.178;2023-04-15T02:51:56;10.48;;;2.72;;
37239;SDS011;23130;48.760;9.178;2023-04-15T02:54:22;7.13;;;3.00;;
37239;SDS011;23130;48.760;9.178;2023-04-15T02:56:47;7.53;;;3.60;;
37239;SDS011;23130;48.760;9.178;2023-04-15T02:59:14;7.85;;;3.28;;
37239;SDS011;23130;48.760;9.178;2023-04-15T03:01:39;13.13;;;2.92;;
37239;SDS011;23130;48.760;9.178;2023-04-15T03:04:05;4.78;;;2.72;;
37239;SDS011;23130;48.760;9.178;2023-04-15T03:06:34;2.88;;;1.90;;
37239;SDS011;23130;48.760;9.178;2023-04-15T03:09:00;5.82;;;2.17;;
37239;SDS011;23130;48.760;9.178;2023-04-15T03:11:26;7.18;;;3.08;;
37239;SDS011;23130;48.760;9.178;2023-04-15T03:13:53;9.40;;;2.70;;
37239;SDS011;23130;48.760;9.178;2023-04-15T03:16:18;5.38;;;2.92;;
37239;SDS011;23130;48.760;9.178;2023-04-15T03:18:44;8.57;;;2.28;;
37239;SDS011;23130;48.760;9.178;2023-04-15T03:21:10;5.80;;;2.05;;
37239;SDS011;23130;48.760;9.178;2023-04-15T03:23:36;5.82;;;2.30;;
37239;SDS011;23130;48.760;9.178;2023-04-15T03:26:02;6.72;;;2.30;;
37239;SDS011;23130;48.760;9.178;2023-04-15T03:28:28;11.00;;;2.88;;
37239;SDS011;23130;48.760;9.178;2023-04-15T03:30:54;6.20;;;2.90;;
37239;SDS011;23130;48.760;9.178;2023-04-15T03:33:20;6.15;;;3.22;;
37239;SDS011;23130;48.760;9.178;2023-04-15T03:35:45;9.73;;;3.15;;
37239;SDS011;23130;48.760;9.178;2023-04-15T03:38:11;8.63;;;2.97;;
37239;SDS011;23130;48.760;9.178;2023-04-15T03:40:37;7.18;;;3.15;;
37239;SDS011;23130;48.760;9.178;2023-04-15T03:43:04;5.32;;;2.30;;
37239;SDS011;23130;48.760;9.178;2023-04-15T03:45:30;5.82;;;2.38;;
37239;SDS011;23130;48.760;9.178;2023-04-15T03:47:55;8.90;;;2.25;;
37239;SDS011;23130;48.760;9.178;2023-04-15T03:50:21;4.47;;;2.08;;
37239;SDS011;23130;48.760;9.178;2023-04-15T03:52:47;9.23;;;2.85;;
37239;SDS011;23130;48.760;9.178;2023-04-15T03:55:12;3.22;;;1.85;;
37239;SDS011;23130;48.760;9.178;2023-04-15T03:57:39;7.15;;;2.15;;
37239;SDS011;23130;48.760;9.178;2023-04-15T04:00:05;7.32;;;2.28;;
37239;SDS011;23130;48.760;9.178;2023-04-15T04:02:33;7.88;;;3.15;;
37239;SDS011;23130;48.760;9.178;2023-04-15T04:04:59;9.35;;;2.78;;
37239;SDS011;23130;48.760;9.178;2023-04-15T04:07:24;4.35;;;2.60;;
37239;SDS011;23130;48.760;9.178;2023-04-15T04:09:50;9.70;;;3.13;;
37239;SDS011;23130;48.760;9.178;2023-04-15T04:12:16;6.43;;;3.22;;
37239;SDS011;23130;48.760;9.178;2023-04-15T04:14:41;5.03;;;3.58;;
37239;SDS011;23130;48.760;9.178;2023-04-15T04:17:07;5.47;;;2.70;;
37239;SDS011;23130;48.760;9.178;2023-04-15T04:19:33;7.10;;;3.15;;
37239;SDS011;23130;48.760;9.178;2023-04-15T04:21:58;3.92;;;2.28;;
37239;SDS011;23130;48.760;9.178;2023-04-15T04:24:24;7.10;;;2.65;;
37239;SDS011;23130;48.760;9.178;2023-04-15T04:26:50;7.65;;;2.65;;
37239;SDS011;23130;48.760;9.178;2023-04-15T04:29:16;7.72;;;2.80;;
37239;SDS011;23130;48.760;9.178;2023-04-15T04:31:41;8.88;;;2.78;;
37239;SDS011;23130;48.760;9.178;2023-04-15T04:34:07;9.98;;;2.72;;
37239;SDS011;23130;48.760;9.178;2023-04-15T04:36:32;6.40;;;2.30;;
37239;SDS011;23130;48.760;9.178;2023-04-15T04:38:58;12.02;;;3.42;;
37239;SDS011;23130;48.760;9.178;2023-04-15T04:41:25;7.13;;;2.72;;
37239;SDS011;23130;48.760;9.178;2023-04-15T04:43:51;9.68;;;3.15;;
37239;SDS011;23130;48.760;9.178;2023-04-15T04:46:16;2.95;;;1.95;;
37239;SDS011;23130;48.760;9.178;2023-04-15T04:48:42;7.30;;;2.97;;
37239;SDS011;23130;48.760;9.178;2023-04-15T04:51:07;7.07;;;3.15;;
37239;SDS011;23130;48.760;9.178;2023-04-15T04:53:33;3.72;;;2.55;;
37239;SDS011;23130;48.760;9.178;2023-04-15T04:55:59;5.85;;;2.65;;
37239;SDS011;23130;48.760;9.178;2023-04-15T04:58:25;5.88;;;2.72;;
37239;SDS011;23130;48.760;9.178;2023-04-15T05:00:51;4.30;;;2.35;;
37239;SDS011;23130;48.760;9.178;2023-04-15T05:03:17;10.07;;;3.28;;
37239;SDS011;23130;48.760;9.178;2023-04-15T05:05:42;6.05;;;2.85;;
37239;SDS011;23130;48.760;9.178;2023-04-15T05:08:08;6.38;;;3.03;;
37239;SDS011;23130;48.760;9.178;2023-04-15T05:10:33;4.07;;;2.22;;
37239;SDS011;23130;48.760;9.178;2023-04-15T05:13:00;4.20;;;1.98;;
37239;SDS011;23130;48.760;9.178;2023-04-15T05:15:25;5.43;;;2.63;;
37239;SDS011;23130;48.760;9.178;2023-04-15T05:17:51;6.47;;;2.65;;
37239;SDS011;23130;48.760;9.178;2023-04-15T05:20:17;6.13;;;2.95;;
37239;SDS011;23130;48.760;9.178;2023-04-15T05:22:42;4.72;;;2.80;;
37239;SDS011;23130;48.760;9.178;2023-04-15T05:25:08;6.82;;;2.38;;
37239;SDS011;23130;48.760;9.178;2023-04-15T05:27:34;4.32;;;2.47;;
37239;SDS011;23130;48.760;9.178;2023-04-15T05:30:00;4.45;;;2.10;;
37239;SDS011;23130;48.760;9.178;2023-04-15T05:32:25;4.65;;;1.73;;
37239;SDS011;23130;48.760;9.178;2023-04-15T05:34:51;4.18;;;2.22;;
37239;SDS011;23130;48.760;9.178;2023-04-15T05:37:17;5.88;;;2.08;;
37239;SDS011;23130;48.760;9.178;2023-04-15T05:39:45;4.65;;;1.95;;
37239;SDS011;23130;48.760;9.178;2023-04-15T05:42:10;11.32;;;2.20;;
37239;SDS011;23130;48.760;9.178;2023-04-15T05:44:36;5.45;;;1.90;;
37239;SDS011;23130;48.760;9.178;2023-04-15T05:47:02;7.32;;;2.30;;
37239;SDS011;23130;48.760;9.178;2023-04-15T05:49:27;6.32;;;2.53;;
37239;SDS011;23130;48.760;9.178;2023-04-15T05:51:53;6.45;;;2.63;;
37239;SDS011;23130;48.760;9.178;2023-04-15T05:54:19;10.90;;;2.50;;
37239;SDS011;23130;48.760;9.178;2023-04-15T05:56:47;5.38;;;2.10;;
37239;SDS011;23130;48.760;9.178;2023-04-15T05:59:12;6.13;;;2.38;;
37239;SDS011;23130;48.760;9.178;2023-04-15T06:01:38;5.72;;;2.33;;
37239;SDS011;23130;48.760;9.178;2023-04-15T06:04:04;6.38;;;2.30;;
37239;SDS011;23130;48.760;9.178;2023-04-15T06:06:30;8.15;;;2.22;;
37239;SDS011;23130;48.760;9.178;2023-04-15T06:08:56;2.83;;;2.13;;
37239;SDS011;23130;48.760;9.178;2023-04-15T06:11:22;5.38;;;1.83;;
37239;SDS011;23130;48.760;9.178;2023-04-15T06:13:48;6.78;;;2.10;;
37239;SDS011;23130;48.760;9.178;2023-04-15T06:16:13;3.92;;;1.70;;
37239;SDS011;23130;48.760;9.178;2023-04-15T06:18:39;3.38;;;1.67;;
37239;SDS011;23130;48.760;9.178;2023-04-15T06:21:05;4.38;;;1.90;;
37239;SDS011;23130;48.760;9.178;2023-04-15T06:23:32;5.32;;;2.20;;
37239;SDS011;23130;48.760;9.178;2023-04-15T06:25:59;5.53;;;2.60;;
37239;SDS011;23130;48.760;9.178;2023-04-15T06:28:25;5.93;;;2.80;;
37239;SDS011;23130;48.760;9.178;2023-04-15T06:30:50;4.93;;;2.67;;
37239;SDS011;23130;48.760;9.178;2023-04-15T06:33:17;7.53;;;2.72;;
37239;SDS011;23130;48.760;9.178;2023-04-15T06:35:43;5.93;;;2.90;;
37239;SDS011;23130;48.760;9.178;2023-04-15T06:38:09;6.88;;;2.83;;
37239;SDS011;23130;48.760;9.178;2023-04-15T06:40:34;4.28;;;2.10;;
37239;SDS011;23130;48.760;9.178;2023-04-15T06:43:00;6.15;;;2.55;;
37239;SDS011;23130;48.760;9.178;2023-04-15T06:45:25;11.27;;;3.13;;
37239;SDS011;23130;48.760;9.178;2023-04-15T06:47:51;3.83;;;2.33;;
37239;SDS011;23130;48.760;9.178;2023-04-15T06:50:17;6.22;;;3.28;;
37239;SDS011;23130;48.760;9.178;2023-04-15T06:52:42;7.07;;;2.72;;
37239;SDS011;23130;48.760;9.178;2023-04-15T06:55:08;8.20;;;3.90;;
37239;SDS011;23130;48.760;9.178;2023-04-15T06:57:34;4.43;;;2.67;;
37239;SDS011;23130;48.760;9.178;2023-04-15T07:00:00;6.03;;;2.85;;
37239;SDS011;23130;48.760;9.178;2023-04-15T07:02:25;5.25;;;3.00;;
37239;SDS011;23130;48.760;9.178;2023-04-15T07:04:51;6.57;;;3.55;;
37239;SDS011;23130;48.760;9.178;2023-04-15T07:07:16;8.88;;;3.33;;
37239;SDS011;23130;48.760;9.178;2023-04-15T07:09:43;7.63;;;3.10;;
37239;SDS011;23130;48.760;9.178;2023-04-15T07:12:08;5.88;;;3.70;;
37239;SDS011;23130;48.760;9.178;2023-04-15T07:14:34;7.20;;;3.45;;
37239;SDS011;23130;48.760;9.178;2023-04-15T07:17:00;8.18;;;4.38;;
37239;SDS011;23130;48.760;9.178;2023-04-15T07:19:26;7.50;;;4.70;;
37239;SDS011;23130;48.760;9.178;2023-04-15T07:21:52;6.82;;;4.82;;
37239;SDS011;23130;48.760;9.178;2023-04-15T07:24:17;6.97;;;4.13;;
37239;SDS011;23130;48.760;9.178;2023-04-15T07:26:44;9.25;;;4.88;;
37239;SDS011;23130;48.760;9.178;2023-04-15T07:29:10;10.15;;;4.20;;
37239;SDS011;23130;48.760;9.178;2023-04-15T07:31:36;9.90;;;4.78;;
37239;SDS011;23130;48.760;9.178;2023-04-15T07:34:02;7.95;;;4.30;;
37239;SDS011;23130;48.760;9.178;2023-04-15T07:36:29;7.10;;;3.80;;
37239;SDS011;23130;48.760;9.178;2023-04-15T07:38:54;8.57;;;4.68;;
37239;SDS011;23130;48.760;9.178;2023-04-15T07:41:22;7.03;;;4.07;;
37239;SDS011;23130;48.760;9.178;2023-04-15T07:43:47;9.05;;;4.30;;
37239;SDS011;23130;48.760;9.178;2023-04-15T07:46:13;7.95;;;4.00;;
37239;SDS011;23130;48.760;9.178;2023-04-15T07:48:39;7.20;;;4.10;;
37239;SDS011;23130;48.760;9.178;2023-04-15T07:51:05;10.50;;;5.03;;
37239;SDS011;23130;48.760;9.178;2023-04-15T07:53:31;8.82;;;4.50;;
37239;SDS011;23130;48.760;9.178;2023-04-15T07:55:57;10.25;;;5.35;;
37239;SDS011;23130;48.760;9.178;2023-04-15T07:58:24;7.07;;;3.90;;
37239;SDS011;23130;48.760;9.178;2023-04-15T08:00:50;6.25;;;4.70;;
37239;SDS011;23130;48.760;9.178;2023-04-15T08:03:15;7.78;;;4.10;;
37239;SDS011;23130;48.760;9.178;2023-04-15T08:05:41;6.45;;;3.90;;
37239;SDS011;23130;48.760;9.178;2023-04-15T08:08:06;8.80;;;3.67;;
37239;SDS011;23130;48.760;9.178;2023-04-15T08:10:32;7.97;;;3.97;;
37239;SDS011;23130;48.760;9.178;2023-04-15T08:12:58;8.52;;;3.92;;
37239;SDS011;23130;48.760;9.178;2023-04-15T08:15:25;9.18;;;3.78;;
37239;SDS011;23130;48.760;9.178;2023-04-15T08:17:51;6.85;;;3.17;;
37239;SDS011;23130;48.760;9.178;2023-04-15T08:20:16;7.82;;;3.42;;
37239;SDS011;23130;48.760;9.178;2023-04-15T08:22:42;7.70;;;3.33;;
37239;SDS011;23130;48.760;9.178;2023-04-15T08:25:08;9.10;;;4.25;;
37239;SDS011;23130;48.760;9.178;2023-04-15T08:27:34;7.13;;;2.97;;
37239;SDS011;23130;48.760;9.178;2023-04-15T08:30:00;5.40;;;2.83;;
37239;SDS011;23130;48.760;9.178;2023-04-15T08:32:25;4.93;;;2.88;;
37239;SDS011;23130;48.760;9.178;2023-04-15T08:34:51;8.35;;;3.13;;
37239;SDS011;23130;48.760;9.178;2023-04-15T08:37:17;5.78;;;2.92;;
37239;SDS011;23130;48.760;9.178;2023-04-15T08:39:42;6.60;;;2.72;;
37239;SDS011;23130;48.760;9.178;2023-04-15T08:42:15;10.88;;;3.28;;
37239;SDS011;23130;48.760;9.178;2023-04-15T08:44:43;9.90;;;3.28;;
37239;SDS011;23130;48.760;9.178;2023-04-15T08:47:10;6.53;;;3.67;;
37239;SDS011;23130;48.760;9.178;2023-04-15T08:49:38;7.88;;;2.95;;
37239;SDS011;23130;48.760;9.178;2023-04-15T08:52:08;7.75;;;3.13;;
37239;SDS011;23130;48.760;9.178;2023-04-15T08:54:34;6.05;;;2.60;;
37239;SDS011;23130;48.760;9.178;2023-04-15T08:57:01;8.35;;;2.67;;
37239;SDS011;23130;48.760;9.178;2023-04-15T08:59:30;7.68;;;2.90;;
37239;SDS011;23130;48.760;9.178;2023-04-15T09:01:56;5.63;;;2.88;;
37239;SDS011;23130;48.760;9.178;2023-04-15T09:04:22;5.15;;;2.60;;
37239;SDS011;23130;48.760;9.178;2023-04-15T09:06:48;5.18;;;2.45;;
37239;SDS011;23130;48.760;9.178;2023-04-15T09:09:14;7.78;;;3.38;;
37239;SDS011;23130;48.760;9.178;2023-04-15T09:11:40;5.32;;;2.83;;
37239;SDS011;23130;48.760;9.178;2023-04-15T09:14:06;6.45;;;2.67;;
37239;SDS011;23130;48.760;9.178;2023-04-15T09:16:51;6.22;;;3.08;;
37239;SDS011;23130;48.760;9.178;2023-04-15T09:19:36;5.97;;;1.98;;
37239;SDS011;23130;48.760;9.178;2023-04-15T09:22:02;6.28;;;2.80;;
37239;SDS011;23130;48.760;9.178;2023-04-15T09:24:35;5.20;;;2.45;;
37239;SDS011;23130;48.760;9.178;2023-04-15T09:27:02;6.75;;;2.20;;
37239;SDS011;23130;48.760;9.178;2023-04-15T09:29:28;6.50;;;2.95;;
37239;SDS011;23130;48.760;9.178;2023-04-15T09:31:53;6.93;;;2.97;;
37239;SDS011;23130;48.760;9.178;2023-04-15T09:34:19;9.77;;;2.90;;
37239;SDS011;23130;48.760;9.178;2023-04-15T09:36:52;6.57;;;3.05;;
37239;SDS011;23130;48.760;9.178;2023-04-15T09:39:21;5.25;;;2.88;;
37239;SDS011;23130;48.760;9.178;2023-04-15T09:41:47;4.45;;;2.55;;
37239;SDS011;23130;48.760;9.178;2023-04-15T09:44:29;4.90;;;2.00;;
37239;SDS011;23130;48.760;9.178;2023-04-15T09:46:55;4.75;;;1.77;;
37239;SDS011;23130;48.760;9.178;2023-04-15T09:49:20;4.47;;;2.00;;
37239;SDS011;23130;48.760;9.178;2023-04-15T09:51:47;2.72;;;1.98;;
37239;SDS011;23130;48.760;9.178;2023-04-15T09:54:13;2.85;;;1.55;;
37239;SDS011;23130;48.760;9.178;2023-04-15T09:56:44;3.40;;;1.90;;
37239;SDS011;23130;48.760;9.178;2023-04-15T09:59:10;4.10;;;1.83;;
37239;SDS011;23130;48.760;9.178;2023-04-15T10:01:36;3.88;;;1.67;;
37239;SDS011;23130;48.760;9.178;2023-04-15T10:04:03;7.40;;;2.40;;
37239;SDS011;23130;48.760;9.178;2023-04-15T10:06:29;3.65;;;1.70;;
37239;SDS011;23130;48.760;9.178;2023-04-15T10:08:56;4.80;;;1.90;;
37239;SDS011;23130;48.760;9.178;2023-04-15T10:11:22;4.93;;;1.85;;
37239;SDS011;23130;48.760;9.178;2023-04-15T10:13:49;4.97;;;1.83;;
37239;SDS011;23130;48.760;9.178;2023-04-15T10:16:18;4.32;;;1.85;;
37239;SDS011;23130;48.760;9.178;2023-04-15T10:18:45;4.70;;;2.53;;
37239;SDS011;23130;48.760;9.178;2023-04-15T10:21:12;3.10;;;1.65;;
37239;SDS011;23130;48.760;9.178;2023-04-15T10:23:42;5.00;;;2.13;;
37239;SDS011;23130;48.760;9.178;2023-04-15T10:26:09;5.63;;;2.30;;
37239;SDS011;23130;48.760;9.178;2023-04-15T10:28:37;7.57;;;2.80;;
37239;SDS011;23130;48.760;9.178;2023-04-15T10:31:03;7.57;;;2.53;;
37239;SDS011;23130;48.760;9.178;2023-04-15T10:33:29;5.10;;;1.95;;
37239;SDS011;23130;48.760;9.178;2023-04-15T10:35:56;4.72;;;1.77;;
37239;SDS011;23130;48.760;9.178;2023-04-15T10:38:35;6.93;;;1.85;;
37239;SDS011;23130;48.760;9.178;2023-04-15T10:41:18;5.13;;;1.95;;
37239;SDS011;23130;48.760;9.178;2023-04-15T10:43:55;4.93;;;2.20;;
37239;SDS011;23130;48.760;9.178;2023-04-15T10:49:08;5.15;;;2.13;;
37239;SDS011;23130;48.760;9.178;2023-04-15T10:51:42;6.22;;;2.60;;
37239;SDS011;23130;48.760;9.178;2023-04-15T10:54:14;6.60;;;2.47;;
37239;SDS011;23130;48.760;9.178;2023-04-15T10:56:50;7.22;;;2.72;;
37239;SDS011;23130;48.760;9.178;2023-04-15T10:59:31;5.35;;;2.35;;
37239;SDS011;23130;48.760;9.178;2023-04-15T11:02:02;4.35;;;2.50;;
37239;SDS011;23130;48.760;9.178;2023-04-15T11:09:57;7.38;;;2.50;;
37239;SDS011;23130;48.760;9.178;2023-04-15T11:12:22;3.85;;;2.28;;
37239;SDS011;23130;48.760;9.178;2023-04-15T11:18:21;5.80;;;2.58;;
37239;SDS011;23130;48.760;9.178;2023-04-15T11:23:33;3.00;;;1.98;;
37239;SDS011;23130;48.760;9.178;2023-04-15T11:26:04;6.65;;;2.22;;
37239;SDS011;23130;48.760;9.178;2023-04-15T11:28:36;4.53;;;2.42;;
37239;SDS011;23130;48.760;9.178;2023-04-15T11:31:14;6.05;;;2.30;;
37239;SDS011;23130;48.760;9.178;2023-04-15T11:34:19;4.38;;;2.00;;
37239;SDS011;23130;48.760;9.178;2023-04-15T11:36:32;7.93;;;2.03;;
37239;SDS011;23130;48.760;9.178;2023-04-15T11:38:58;4.25;;;2.33;;
37239;SDS011;23130;48.760;9.178;2023-04-15T11:41:24;7.07;;;2.00;;
37239;SDS011;23130;48.760;9.178;2023-04-15T11:43:50;3.67;;;2.45;;
37239;SDS011;23130;48.760;9.178;2023-04-15T11:46:16;4.32;;;2.08;;
37239;SDS011;23130;48.760;9.178;2023-04-15T11:48:43;5.38;;;2.58;;
37239;SDS011;23130;48.760;9.178;2023-04-15T11:51:10;5.03;;;2.53;;
37239;SDS011;23130;48.760;9.178;2023-04-15T11:56:05;6.32;;;2.67;;
37239;SDS011;23130;48.760;9.178;2023-04-15T11:58:33;6.05;;;3.00;;
37239;SDS011;23130;48.760;9.178;2023-04-15T12:01:03;5.63;;;2.50;;
37239;SDS011;23130;48.760;9.178;2023-04-15T12:03:34;5.18;;;2.55;;
37239;SDS011;23130;48.760;9.178;2023-04-15T12:06:04;5.07;;;2.35;;
37239;SDS011;23130;48.760;9.178;2023-04-15T12:11:31;7.18;;;2.88;;
37239;SDS011;23130;48.760;9.178;2023-04-15T12:14:04;5.30;;;2.72;;
37239;SDS011;23130;48.760;9.178;2023-04-15T12:16:35;4.78;;;2.75;;
37239;SDS011;23130;48.760;9.178;2023-04-15T12:19:07;6.35;;;3.28;;
37239;SDS011;23130;48.760;9.178;2023-04-15T12:21:39;5.65;;;2.30;;
37239;SDS011;23130;48.760;9.178;2023-04-15T12:24:07;7.68;;;3.22;;
37239;SDS011;23130;48.760;9.178;2023-04-15T12:29:09;5.03;;;3.15;;
37239;SDS011;23130;48.760;9.178;2023-04-15T12:31:35;7.35;;;2.83;;
37239;SDS011;23130;48.760;9.178;2023-04-15T12:34:02;7.18;;;2.78;;
37239;SDS011;23130;48.760;9.178;2023-04-15T12:36:31;8.23;;;2.67;;
37239;SDS011;23130;48.760;9.178;2023-04-15T12:39:01;6.63;;;3.03;;
37239;SDS011;23130;48.760;9.178;2023-04-15T12:41:28;9.25;;;3.20;;
37239;SDS011;23130;48.760;9.178;2023-04-15T12:43:53;8.73;;;2.97;;
37239;SDS011;23130;48.760;9.178;2023-04-15T12:46:19;6.45;;;2.85;;
37239;SDS011;23130;48.760;9.178;2023-04-15T12:48:45;9.35;;;3.13;;
37239;SDS011;23130;48.760;9.178;2023-04-15T12:51:11;6.13;;;3.55;;
37239;SDS011;23130;48.760;9.178;2023-04-15T12:53:37;5.07;;;3.10;;
37239;SDS011;23130;48.760;9.178;2023-04-15T12:56:03;5.50;;;3.75;;
37239;SDS011;23130;48.760;9.178;2023-04-15T12:58:28;6.72;;;3.67;;
37239;SDS011;23130;48.760;9.178;2023-04-15T13:00:54;4.18;;;3.10;;
37239;SDS011;23130;48.760;9.178;2023-04-15T13:03:21;8.90;;;3.50;;
37239;SDS011;23130;48.760;9.178;2023-04-15T13:05:46;7.20;;;2.85;;
37239;SDS011;23130;48.760;9.178;2023-04-15T13:08:12;5.55;;;3.28;;
37239;SDS011;23130;48.760;9.178;2023-04-15T13:10:37;4.43;;;2.67;;
37239;SDS011;23130;48.760;9.178;2023-04-15T13:13:03;4.95;;;2.42;;
37239;SDS011;23130;48.760;9.178;2023-04-15T13:15:29;6.57;;;2.40;;
37239;SDS011;23130;48.760;9.178;2023-04-15T13:17:55;5.20;;;2.08;;
37239;SDS011;23130;48.760;9.178;2023-04-15T13:20:21;3.53;;;2.03;;
37239;SDS011;23130;48.760;9.178;2023-04-15T13:22:46;3.22;;;1.92;;
37239;SDS011;23130;48.760;9.178;2023-04-15T13:25:12;6.55;;;2.00;;
37239;SDS011;23130;48.760;9.178;2023-04-15T13:27:38;6.00;;;2.00;;
37239;SDS011;23130;48.760;9.178;2023-04-15T13:30:04;3.88;;;1.70;;
37239;SDS011;23130;48.760;9.178;2023-04-15T13:32:30;2.55;;;1.88;;
37239;SDS011;23130;48.760;9.178;2023-04-15T13:34:55;3.20;;;1.98;;
37239;SDS011;23130;48.760;9.178;2023-04-15T13:37:25;3.35;;;2.17;;
37239;SDS011;23130;48.760;9.178;2023-04-15T13:39:52;3.42;;;1.75;;
37239;SDS011;23130;48.760;9.178;2023-04-15T13:42:18;3.80;;;1.83;;
37239;SDS011;23130;48.760;9.178;2023-04-15T13:44:45;5.28;;;2.08;;
37239;SDS011;23130;48.760;9.178;2023-04-15T13:47:10;4.10;;;2.10;;
37239;SDS011;23130;48.760;9.178;2023-04-15T13:49:37;2.15;;;1.42;;
37239;SDS011;23130;48.760;9.178;2023-04-15T13:52:02;2.67;;;1.30;;
37239;SDS011;23130;48.760;9.178;2023-04-15T13:54:28;3.95;;;1.52;;
37239;SDS011;23130;48.760;9.178;2023-04-15T13:56:53;3.10;;;0.98;;
37239;SDS011;23130;48.760;9.178;2023-04-15T13:59:21;2.20;;;1.15;;
37239;SDS011;23130;48.760;9.178;2023-04-15T14:01:46;3.88;;;1.58;;
37239;SDS011;23130;48.760;9.178;2023-04-15T14:04:12;3.13;;;1.20;;
37239;SDS011;23130;48.760;9.178;2023-04-15T14:06:38;4.38;;;1.15;;
37239;SDS011;23130;48.760;9.178;2023-04-15T14:09:03;1.33;;;0.50;;
37239;SDS011;23130;48.760;9.178;2023-04-15T14:11:29;1.55;;;0.82;;
37239;SDS011;23130;48.760;9.178;2023-04-15T14:13:54;1.23;;;0.70;;
37239;SDS011;23130;48.760;9.178;2023-04-15T14:16:20;1.67;;;0.88;;
37239;SDS011;23130;48.760;9.178;2023-04-15T14:18:45;2.90;;;0.80;;
37239;SDS011;23130;48.760;9.178;2023-04-15T14:21:11;1.60;;;1.00;;
37239;SDS011;23130;48.760;9.178;2023-04-15T14:23:37;1.85;;;0.80;;
37239;SDS011;23130;48.760;9.178;2023-04-15T14:26:03;3.13;;;0.82;;
37239;SDS011;23130;48.760;9.178;2023-04-15T14:28:28;1.45;;;0.82;;
37239;SDS011;23130;48.760;9.178;2023-04-15T14:30:54;1.50;;;0.55;;
37239;SDS011;23130;48.760;9.178;2023-04-15T14:33:19;1.73;;;0.80;;
37239;SDS011;23130;48.760;9.178;2023-04-15T14:35:45;2.67;;;0.80;;
37239;SDS011;23130;48.760;9.178;2023-04-15T14:38:11;2.28;;;0.75;;
37239;SDS011;23130;48.760;9.178;2023-04-15T14:40:36;5.40;;;1.35;;
37239;SDS011;23130;48.760;9.178;2023-04-15T14:43:02;3.35;;;1.15;;
37239;SDS011;23130;48.760;9.178;2023-04-15T14:45:28;4.63;;;1.10;;
37239;SDS011;23130;48.760;9.178;2023-04-15T14:47:54;3.88;;;1.25;;
37239;SDS011;23130;48.760;9.178;2023-04-15T14:50:20;2.58;;;0.90;;
37239;SDS011;23130;48.760;9.178;2023-04-15T14:52:46;1.55;;;0.80;;
37239;SDS011;23130;48.760;9.178;2023-04-15T14:55:12;3.53;;;0.90;;
37239;SDS011;23130;48.760;9.178;2023-04-15T14:57:38;2.53;;;0.98;;
37239;SDS011;23130;48.760;9.178;2023-04-15T15:00:08;2.08;;;0.88;;
37239;SDS011;23130;48.760;9.178;2023-04-15T15:02:35;2.88;;;1.08;;
37239;SDS011;23130;48.760;9.178;2023-04-15T15:05:02;1.27;;;0.73;;
37239;SDS011;23130;48.760;9.178;2023-04-15T15:07:28;3.22;;;1.30;;
37239;SDS011;23130;48.760;9.178;2023-04-15T15:09:53;3.75;;;1.10;;